San Diego, California
Traffic Map
Current Weather Conditions
San Diego, California
Broken Clouds
Broken Clouds
26°
Feels Like: 27°
Wind Chill: 26° Ceiling: 20000
Heat Index: 27° Visibility: 10mi
Dew Point: 18° Wind: 13mph
Humidity: 60% Direction: 290° (WNW)
Pressure: 29.89in Gusts: 0mph
Raw Report DataKSAN 312251Z 29011KT 10SM FEW013 BKN200 26/18 A2989 RMK AO2 SLP121 T02610178
Traffic Incident Summary
Active as of:
Severity:
Category:
InformationThere was an issue retrieving the traffic information for this location. Please try a different location or try again shortly.
Advertisements
Track Severe Weather on mobile